Airfield :
LOGIN :

Register | Disclaimer

   EN    FR    IT 

 










Legend :    VFR   Marginal VFR   IFR   Intensive IFR   Very Intensive IFR
Visi :
Ceiling :
>= 8 km
>= 3000ft
5 to 8 km
1000 to 3000 ft
1500m to 5 km
500 to 1000 ft
800 to 1500m
200 to 500 ft
< 800m
< 200 ft
Symbols :   Thunderstorms  Fog  Heavy snow  Heavy precipitations  Wind > 20 kt
SIGMETs :     Misc.  Thunderstorms  Icing  Turbulence  Mountain Waves  Volcanic Ashes







- Airport Elevation : 56 ft
- IATA code : ODE


EKOD - Odense

CURRENT METAR :
  • 181710Z VRB01KT 4000 SHRA TSRA SCT033TCU BKN055 21/20 Q1014

EXPIRED METARs :
  • 181705Z VRB03KT 9999 -TSRA SCT033TCU BKN055 21/19 Q1014
  • 181650Z 05005KT 360V100 9999 SCT033TCU BKN055 22/19 Q1013
  • 181620Z 02005KT 320V090 9999 -SHRA SCT033CB BKN055 21/19 Q1014
  • 181550Z 33003KT 9999 -SHRA SCT033CB BKN070 22/19 Q1013
  • 181535Z 28003KT 9999 -TSRA FEW033CB BKN080 22/19 Q1014
  • 181520Z 26006KT 9999 -SHRA FEW030CB BKN100 22/19 Q1014
  • 181450Z 20008KT 160V240 9999 FEW030 SCT100 25/14 Q1014

Expired Forecast.
No reported NOTAMs for that airfield.



MET'MAP, your aeronautical weather chart ! - Copyright ORBIFLY December 2007 - Disclaimer

ORBIFLY MET'MAP TEAM :

Programming & Development : Alexandra Zaïnal
Concept & Development : Baudouin d'Aumeries
Co-Development & Prog : Marc-Olivier Méhu
Technical & hardware support : Manuel Goepfert

Contact : metmap@orbifly.com




SOURCES & CREDITS :

   NOAA